sensor_id;sensor_type;location;lat;lon;timestamp;temperature;humidity
8248;DHT22;4164;49.844;8.830;2023-06-14T00:01:51;14.80;1.00
8248;DHT22;4164;49.844;8.830;2023-06-14T00:04:17;14.80;1.00
8248;DHT22;4164;49.844;8.830;2023-06-14T00:06:44;14.70;1.00
8248;DHT22;4164;49.844;8.830;2023-06-14T00:09:11;14.70;1.00
8248;DHT22;4164;49.844;8.830;2023-06-14T00:11:39;14.70;1.00
8248;DHT22;4164;49.844;8.830;2023-06-14T00:14:05;14.70;1.00
8248;DHT22;4164;49.844;8.830;2023-06-14T00:16:30;14.70;1.00
8248;DHT22;4164;49.844;8.830;2023-06-14T00:18:58;14.60;1.00
8248;DHT22;4164;49.844;8.830;2023-06-14T00:21:23;14.60;1.00
8248;DHT22;4164;49.844;8.830;2023-06-14T00:23:49;14.50;54.80
8248;DHT22;4164;49.844;8.830;2023-06-14T00:26:14;14.60;99.90
8248;DHT22;4164;49.844;8.830;2023-06-14T00:28:40;14.70;1.00
8248;DHT22;4164;49.844;8.830;2023-06-14T00:31:06;14.70;1.00
8248;DHT22;4164;49.844;8.830;2023-06-14T00:33:31;14.70;1.00
8248;DHT22;4164;49.844;8.830;2023-06-14T00:35:57;14.70;1.00
8248;DHT22;4164;49.844;8.830;2023-06-14T00:38:23;14.70;1.00
8248;DHT22;4164;49.844;8.830;2023-06-14T00:40:48;14.60;1.00
8248;DHT22;4164;49.844;8.830;2023-06-14T00:43:14;14.60;1.00
8248;DHT22;4164;49.844;8.830;2023-06-14T00:45:39;14.60;1.00
8248;DHT22;4164;49.844;8.830;2023-06-14T00:48:05;14.60;9.60
8248;DHT22;4164;49.844;8.830;2023-06-14T00:50:32;14.50;99.90
8248;DHT22;4164;49.844;8.830;2023-06-14T00:52:59;14.50;99.90
8248;DHT22;4164;49.844;8.830;2023-06-14T00:55:25;14.50;99.90
8248;DHT22;4164;49.844;8.830;2023-06-14T00:57:51;14.50;99.90
8248;DHT22;4164;49.844;8.830;2023-06-14T01:00:16;14.40;99.90
8248;DHT22;4164;49.844;8.830;2023-06-14T01:02:42;14.30;99.90
8248;DHT22;4164;49.844;8.830;2023-06-14T01:05:08;14.20;99.90
8248;DHT22;4164;49.844;8.830;2023-06-14T01:07:53;14.10;99.90
8248;DHT22;4164;49.844;8.830;2023-06-14T01:10:51;13.90;99.90
8248;DHT22;4164;49.844;8.830;2023-06-14T01:13:34;14.00;1.00
8248;DHT22;4164;49.844;8.830;2023-06-14T01:16:01;14.00;1.00
8248;DHT22;4164;49.844;8.830;2023-06-14T01:18:31;14.10;99.90
8248;DHT22;4164;49.844;8.830;2023-06-14T01:20:57;14.10;99.90
8248;DHT22;4164;49.844;8.830;2023-06-14T01:23:23;13.80;99.90
8248;DHT22;4164;49.844;8.830;2023-06-14T01:25:50;13.60;1.00
8248;DHT22;4164;49.844;8.830;2023-06-14T01:28:20;13.60;1.00
8248;DHT22;4164;49.844;8.830;2023-06-14T01:30:48;13.80;99.90
8248;DHT22;4164;49.844;8.830;2023-06-14T01:33:16;13.90;99.90
8248;DHT22;4164;49.844;8.830;2023-06-14T01:35:45;13.90;30.10
8248;DHT22;4164;49.844;8.830;2023-06-14T01:38:12;13.90;1.00
8248;DHT22;4164;49.844;8.830;2023-06-14T01:40:39;13.80;1.00
8248;DHT22;4164;49.844;8.830;2023-06-14T01:43:05;13.50;24.40
8248;DHT22;4164;49.844;8.830;2023-06-14T01:45:33;13.50;99.90
8248;DHT22;4164;49.844;8.830;2023-06-14T01:47:59;13.40;99.90
8248;DHT22;4164;49.844;8.830;2023-06-14T01:50:31;13.40;99.90
8248;DHT22;4164;49.844;8.830;2023-06-14T01:52:57;13.20;1.00
8248;DHT22;4164;49.844;8.830;2023-06-14T01:55:22;13.10;1.00
8248;DHT22;4164;49.844;8.830;2023-06-14T01:57:50;13.00;1.00
8248;DHT22;4164;49.844;8.830;2023-06-14T02:00:16;13.00;99.90
8248;DHT22;4164;49.844;8.830;2023-06-14T02:02:44;13.10;1.00
8248;DHT22;4164;49.844;8.830;2023-06-14T02:05:09;13.20;1.00
8248;DHT22;4164;49.844;8.830;2023-06-14T02:07:35;13.20;99.90
8248;DHT22;4164;49.844;8.830;2023-06-14T02:10:02;13.30;1.00
8248;DHT22;4164;49.844;8.830;2023-06-14T02:12:27;13.30;1.00
8248;DHT22;4164;49.844;8.830;2023-06-14T02:14:53;13.10;1.00
8248;DHT22;4164;49.844;8.830;2023-06-14T02:17:19;13.10;99.90
8248;DHT22;4164;49.844;8.830;2023-06-14T02:19:45;13.00;1.00
8248;DHT22;4164;49.844;8.830;2023-06-14T02:22:11;13.10;8.10
8248;DHT22;4164;49.844;8.830;2023-06-14T02:24:37;13.10;1.00
8248;DHT22;4164;49.844;8.830;2023-06-14T02:27:02;12.90;99.90
8248;DHT22;4164;49.844;8.830;2023-06-14T02:29:28;12.90;1.00
8248;DHT22;4164;49.844;8.830;2023-06-14T02:31:54;12.80;99.90
8248;DHT22;4164;49.844;8.830;2023-06-14T02:34:19;13.00;96.40
8248;DHT22;4164;49.844;8.830;2023-06-14T02:36:47;12.90;1.00
8248;DHT22;4164;49.844;8.830;2023-06-14T02:39:13;12.80;99.90
8248;DHT22;4164;49.844;8.830;2023-06-14T02:41:39;12.50;35.60
8248;DHT22;4164;49.844;8.830;2023-06-14T02:44:05;12.50;1.00
8248;DHT22;4164;49.844;8.830;2023-06-14T02:46:31;12.50;1.00
8248;DHT22;4164;49.844;8.830;2023-06-14T02:48:57;12.50;1.00
8248;DHT22;4164;49.844;8.830;2023-06-14T02:51:22;12.70;1.00
8248;DHT22;4164;49.844;8.830;2023-06-14T02:53:48;12.90;99.90
8248;DHT22;4164;49.844;8.830;2023-06-14T02:56:14;12.90;1.00
8248;DHT22;4164;49.844;8.830;2023-06-14T02:58:39;13.00;99.90
8248;DHT22;4164;49.844;8.830;2023-06-14T03:01:06;12.90;73.60
8248;DHT22;4164;49.844;8.830;2023-06-14T03:03:33;13.00;99.90
8248;DHT22;4164;49.844;8.830;2023-06-14T03:05:58;13.00;13.00
8248;DHT22;4164;49.844;8.830;2023-06-14T03:08:32;13.00;1.00
8248;DHT22;4164;49.844;8.830;2023-06-14T03:11:04;12.90;99.90
8248;DHT22;4164;49.844;8.830;2023-06-14T03:13:30;12.90;99.90
8248;DHT22;4164;49.844;8.830;2023-06-14T03:15:57;12.80;99.90
8248;DHT22;4164;49.844;8.830;2023-06-14T03:18:23;12.80;1.00
8248;DHT22;4164;49.844;8.830;2023-06-14T03:20:48;12.80;99.90
8248;DHT22;4164;49.844;8.830;2023-06-14T03:23:16;12.70;99.90
8248;DHT22;4164;49.844;8.830;2023-06-14T03:25:41;12.40;99.90
8248;DHT22;4164;49.844;8.830;2023-06-14T03:28:07;12.40;1.00
8248;DHT22;4164;49.844;8.830;2023-06-14T03:30:33;12.50;72.50
8248;DHT22;4164;49.844;8.830;2023-06-14T03:32:59;12.40;90.90
8248;DHT22;4164;49.844;8.830;2023-06-14T03:35:27;12.40;99.90
8248;DHT22;4164;49.844;8.830;2023-06-14T03:37:53;12.40;99.90
8248;DHT22;4164;49.844;8.830;2023-06-14T03:40:19;12.50;1.00
8248;DHT22;4164;49.844;8.830;2023-06-14T03:42:45;12.60;1.00
8248;DHT22;4164;49.844;8.830;2023-06-14T03:45:11;12.50;1.00
8248;DHT22;4164;49.844;8.830;2023-06-14T03:47:36;12.30;99.90
8248;DHT22;4164;49.844;8.830;2023-06-14T03:50:03;12.30;1.00
8248;DHT22;4164;49.844;8.830;2023-06-14T03:52:29;12.30;32.50
8248;DHT22;4164;49.844;8.830;2023-06-14T03:54:54;12.30;1.00
8248;DHT22;4164;49.844;8.830;2023-06-14T03:57:21;12.40;1.00
8248;DHT22;4164;49.844;8.830;2023-06-14T03:59:47;12.60;83.40
8248;DHT22;4164;49.844;8.830;2023-06-14T04:02:12;12.60;1.00
8248;DHT22;4164;49.844;8.830;2023-06-14T04:04:41;12.60;99.90
8248;DHT22;4164;49.844;8.830;2023-06-14T04:07:10;12.60;99.90
8248;DHT22;4164;49.844;8.830;2023-06-14T04:09:37;12.80;1.00
8248;DHT22;4164;49.844;8.830;2023-06-14T04:12:03;13.00;85.90
8248;DHT22;4164;49.844;8.830;2023-06-14T04:14:28;13.10;1.00
8248;DHT22;4164;49.844;8.830;2023-06-14T04:16:56;13.10;1.00
8248;DHT22;4164;49.844;8.830;2023-06-14T04:19:21;13.20;1.00
8248;DHT22;4164;49.844;8.830;2023-06-14T04:21:47;13.30;89.70
8248;DHT22;4164;49.844;8.830;2023-06-14T04:24:13;13.40;99.90
8248;DHT22;4164;49.844;8.830;2023-06-14T04:26:45;13.40;99.90
8248;DHT22;4164;49.844;8.830;2023-06-14T04:29:13;13.60;1.00
8248;DHT22;4164;49.844;8.830;2023-06-14T04:31:46;13.70;15.50
8248;DHT22;4164;49.844;8.830;2023-06-14T04:34:14;13.70;1.00
8248;DHT22;4164;49.844;8.830;2023-06-14T04:36:43;13.70;99.90
8248;DHT22;4164;49.844;8.830;2023-06-14T04:39:18;13.80;99.90
8248;DHT22;4164;49.844;8.830;2023-06-14T04:41:44;13.90;1.00
8248;DHT22;4164;49.844;8.830;2023-06-14T04:44:10;14.00;1.00
8248;DHT22;4164;49.844;8.830;2023-06-14T04:46:38;14.10;1.00
8248;DHT22;4164;49.844;8.830;2023-06-14T04:49:14;14.10;99.90
8248;DHT22;4164;49.844;8.830;2023-06-14T04:51:41;14.00;1.00
8248;DHT22;4164;49.844;8.830;2023-06-14T04:54:08;14.10;99.90
8248;DHT22;4164;49.844;8.830;2023-06-14T04:56:35;14.50;99.90
8248;DHT22;4164;49.844;8.830;2023-06-14T04:59:02;14.40;99.90
8248;DHT22;4164;49.844;8.830;2023-06-14T05:01:30;14.40;99.90
8248;DHT22;4164;49.844;8.830;2023-06-14T05:03:57;14.50;99.90
8248;DHT22;4164;49.844;8.830;2023-06-14T05:06:22;14.70;1.00
8248;DHT22;4164;49.844;8.830;2023-06-14T05:08:49;14.80;1.00
8248;DHT22;4164;49.844;8.830;2023-06-14T05:11:14;14.90;1.00
8248;DHT22;4164;49.844;8.830;2023-06-14T05:13:42;14.80;99.90
8248;DHT22;4164;49.844;8.830;2023-06-14T05:16:08;14.90;99.90
8248;DHT22;4164;49.844;8.830;2023-06-14T05:18:34;15.00;1.00
8248;DHT22;4164;49.844;8.830;2023-06-14T05:21:01;15.30;99.90
8248;DHT22;4164;49.844;8.830;2023-06-14T05:23:26;15.30;99.90
8248;DHT22;4164;49.844;8.830;2023-06-14T05:25:52;15.50;99.90
8248;DHT22;4164;49.844;8.830;2023-06-14T05:28:18;15.60;99.90
8248;DHT22;4164;49.844;8.830;2023-06-14T05:30:43;15.70;99.90
8248;DHT22;4164;49.844;8.830;2023-06-14T05:33:09;15.90;99.90
8248;DHT22;4164;49.844;8.830;2023-06-14T05:35:35;16.00;70.70
8248;DHT22;4164;49.844;8.830;2023-06-14T05:38:00;16.00;55.20
8248;DHT22;4164;49.844;8.830;2023-06-14T05:42:51;16.40;1.00
8248;DHT22;4164;49.844;8.830;2023-06-14T05:45:17;16.40;1.00
8248;DHT22;4164;49.844;8.830;2023-06-14T05:47:43;16.60;1.00
8248;DHT22;4164;49.844;8.830;2023-06-14T05:50:09;16.70;1.00
8248;DHT22;4164;49.844;8.830;2023-06-14T05:52:35;16.90;1.00
8248;DHT22;4164;49.844;8.830;2023-06-14T05:55:02;16.90;1.00
8248;DHT22;4164;49.844;8.830;2023-06-14T05:57:31;17.10;1.00
8248;DHT22;4164;49.844;8.830;2023-06-14T05:59:57;17.20;99.90
8248;DHT22;4164;49.844;8.830;2023-06-14T06:02:22;17.20;99.90
8248;DHT22;4164;49.844;8.830;2023-06-14T06:04:48;17.30;99.90
8248;DHT22;4164;49.844;8.830;2023-06-14T06:07:13;17.50;99.90
8248;DHT22;4164;49.844;8.830;2023-06-14T06:09:39;17.60;99.90
8248;DHT22;4164;49.844;8.830;2023-06-14T06:12:06;17.70;99.90
8248;DHT22;4164;49.844;8.830;2023-06-14T06:14:32;17.90;99.90
8248;DHT22;4164;49.844;8.830;2023-06-14T06:16:58;18.00;99.90
8248;DHT22;4164;49.844;8.830;2023-06-14T06:19:24;18.20;99.90
8248;DHT22;4164;49.844;8.830;2023-06-14T06:21:50;18.40;99.90
8248;DHT22;4164;49.844;8.830;2023-06-14T06:24:15;18.60;99.90
8248;DHT22;4164;49.844;8.830;2023-06-14T06:26:41;18.70;99.90
8248;DHT22;4164;49.844;8.830;2023-06-14T06:29:07;18.90;99.90
8248;DHT22;4164;49.844;8.830;2023-06-14T06:31:32;18.90;99.90
8248;DHT22;4164;49.844;8.830;2023-06-14T06:33:58;18.90;99.90
8248;DHT22;4164;49.844;8.830;2023-06-14T06:36:24;18.80;99.90
8248;DHT22;4164;49.844;8.830;2023-06-14T06:38:50;18.90;99.90
8248;DHT22;4164;49.844;8.830;2023-06-14T06:41:16;19.00;99.90
8248;DHT22;4164;49.844;8.830;2023-06-14T06:43:41;19.30;99.90
8248;DHT22;4164;49.844;8.830;2023-06-14T06:46:07;19.40;99.90
8248;DHT22;4164;49.844;8.830;2023-06-14T06:48:32;19.50;99.90
8248;DHT22;4164;49.844;8.830;2023-06-14T06:50:58;19.50;99.90
8248;DHT22;4164;49.844;8.830;2023-06-14T06:53:23;19.50;99.90
8248;DHT22;4164;49.844;8.830;2023-06-14T06:55:49;19.50;99.90
8248;DHT22;4164;49.844;8.830;2023-06-14T06:58:14;19.80;99.90
8248;DHT22;4164;49.844;8.830;2023-06-14T07:00:40;20.00;99.90
8248;DHT22;4164;49.844;8.830;2023-06-14T07:03:06;20.20;99.90
8248;DHT22;4164;49.844;8.830;2023-06-14T07:05:31;20.30;99.90
8248;DHT22;4164;49.844;8.830;2023-06-14T07:07:57;20.30;95.30
8248;DHT22;4164;49.844;8.830;2023-06-14T07:10:23;20.40;91.10
8248;DHT22;4164;49.844;8.830;2023-06-14T07:12:50;20.40;79.20
8248;DHT22;4164;49.844;8.830;2023-06-14T07:15:15;20.40;63.10
8248;DHT22;4164;49.844;8.830;2023-06-14T07:17:41;20.50;73.00
8248;DHT22;4164;49.844;8.830;2023-06-14T07:20:08;20.80;76.60
8248;DHT22;4164;49.844;8.830;2023-06-14T07:22:37;20.80;58.10
8248;DHT22;4164;49.844;8.830;2023-06-14T07:25:03;20.80;62.60
8248;DHT22;4164;49.844;8.830;2023-06-14T07:27:29;20.80;50.00
8248;DHT22;4164;49.844;8.830;2023-06-14T07:29:54;21.00;59.70
8248;DHT22;4164;49.844;8.830;2023-06-14T07:32:20;21.20;46.30
8248;DHT22;4164;49.844;8.830;2023-06-14T07:34:45;21.20;40.00
8248;DHT22;4164;49.844;8.830;2023-06-14T07:37:11;21.30;41.10
8248;DHT22;4164;49.844;8.830;2023-06-14T07:39:36;21.40;31.60
8248;DHT22;4164;49.844;8.830;2023-06-14T07:42:02;21.50;28.50
8248;DHT22;4164;49.844;8.830;2023-06-14T07:44:29;21.40;25.00
8248;DHT22;4164;49.844;8.830;2023-06-14T07:46:56;21.50;23.40
8248;DHT22;4164;49.844;8.830;2023-06-14T07:49:25;21.60;19.60
8248;DHT22;4164;49.844;8.830;2023-06-14T07:51:51;21.70;12.50
8248;DHT22;4164;49.844;8.830;2023-06-14T07:54:19;21.50;13.10
8248;DHT22;4164;49.844;8.830;2023-06-14T07:56:50;21.60;10.70
8248;DHT22;4164;49.844;8.830;2023-06-14T07:59:16;21.70;11.80
8248;DHT22;4164;49.844;8.830;2023-06-14T08:01:41;21.80;5.30
8248;DHT22;4164;49.844;8.830;2023-06-14T08:04:12;21.80;10.30
8248;DHT22;4164;49.844;8.830;2023-06-14T08:06:38;21.90;8.30
8248;DHT22;4164;49.844;8.830;2023-06-14T08:09:04;21.90;1.20
8248;DHT22;4164;49.844;8.830;2023-06-14T08:11:30;21.90;1.50
8248;DHT22;4164;49.844;8.830;2023-06-14T08:13:56;21.80;1.00
8248;DHT22;4164;49.844;8.830;2023-06-14T08:16:22;22.00;10.70
8248;DHT22;4164;49.844;8.830;2023-06-14T08:18:48;22.20;1.00
8248;DHT22;4164;49.844;8.830;2023-06-14T08:21:13;22.20;1.00
8248;DHT22;4164;49.844;8.830;2023-06-14T08:23:40;22.20;1.00
8248;DHT22;4164;49.844;8.830;2023-06-14T08:26:07;22.40;1.00
8248;DHT22;4164;49.844;8.830;2023-06-14T08:28:32;22.40;1.00
8248;DHT22;4164;49.844;8.830;2023-06-14T08:30:57;22.40;1.00
8248;DHT22;4164;49.844;8.830;2023-06-14T08:33:23;22.30;1.00
8248;DHT22;4164;49.844;8.830;2023-06-14T08:35:49;22.30;1.00
8248;DHT22;4164;49.844;8.830;2023-06-14T08:38:14;22.30;1.00
8248;DHT22;4164;49.844;8.830;2023-06-14T08:40:41;22.20;1.00
8248;DHT22;4164;49.844;8.830;2023-06-14T08:43:07;22.20;1.00
8248;DHT22;4164;49.844;8.830;2023-06-14T08:45:33;22.10;1.00
8248;DHT22;4164;49.844;8.830;2023-06-14T08:47:59;22.20;1.00
8248;DHT22;4164;49.844;8.830;2023-06-14T08:50:25;22.30;1.00
8248;DHT22;4164;49.844;8.830;2023-06-14T08:52:56;22.50;1.00
8248;DHT22;4164;49.844;8.830;2023-06-14T08:55:23;22.60;1.00
8248;DHT22;4164;49.844;8.830;2023-06-14T08:57:54;22.80;1.00
8248;DHT22;4164;49.844;8.830;2023-06-14T09:00:20;22.80;1.00
8248;DHT22;4164;49.844;8.830;2023-06-14T09:02:46;22.40;1.00
8248;DHT22;4164;49.844;8.830;2023-06-14T09:05:13;22.20;1.00
8248;DHT22;4164;49.844;8.830;2023-06-14T09:07:39;22.10;1.00
8248;DHT22;4164;49.844;8.830;2023-06-14T09:10:08;22.10;1.00
8248;DHT22;4164;49.844;8.830;2023-06-14T09:12:34;22.20;1.00
8248;DHT22;4164;49.844;8.830;2023-06-14T09:14:59;22.10;1.00
8248;DHT22;4164;49.844;8.830;2023-06-14T09:17:25;22.10;1.00
8248;DHT22;4164;49.844;8.830;2023-06-14T09:19:51;22.20;1.00
8248;DHT22;4164;49.844;8.830;2023-06-14T09:22:17;22.50;1.00
8248;DHT22;4164;49.844;8.830;2023-06-14T09:24:42;22.60;1.00
8248;DHT22;4164;49.844;8.830;2023-06-14T09:27:08;22.40;1.00
8248;DHT22;4164;49.844;8.830;2023-06-14T09:29:33;22.20;1.00
8248;DHT22;4164;49.844;8.830;2023-06-14T09:31:59;22.40;1.00
8248;DHT22;4164;49.844;8.830;2023-06-14T09:34:24;23.10;1.00
8248;DHT22;4164;49.844;8.830;2023-06-14T09:36:50;23.60;1.00
8248;DHT22;4164;49.844;8.830;2023-06-14T09:39:17;23.70;1.00
8248;DHT22;4164;49.844;8.830;2023-06-14T09:41:43;23.60;1.00
8248;DHT22;4164;49.844;8.830;2023-06-14T09:44:10;23.50;1.00
8248;DHT22;4164;49.844;8.830;2023-06-14T09:46:37;23.80;1.00
8248;DHT22;4164;49.844;8.830;2023-06-14T09:49:04;24.00;1.00
8248;DHT22;4164;49.844;8.830;2023-06-14T09:51:30;24.20;1.00
8248;DHT22;4164;49.844;8.830;2023-06-14T09:54:00;23.80;1.00
8248;DHT22;4164;49.844;8.830;2023-06-14T09:56:44;23.50;1.00
8248;DHT22;4164;49.844;8.830;2023-06-14T09:59:10;23.90;1.00
8248;DHT22;4164;49.844;8.830;2023-06-14T10:01:42;24.50;1.00
8248;DHT22;4164;49.844;8.830;2023-06-14T10:04:09;24.40;1.00
8248;DHT22;4164;49.844;8.830;2023-06-14T10:06:36;24.20;1.00
8248;DHT22;4164;49.844;8.830;2023-06-14T10:09:04;24.70;1.00
8248;DHT22;4164;49.844;8.830;2023-06-14T10:11:31;25.40;1.00
8248;DHT22;4164;49.844;8.830;2023-06-14T10:13:58;25.40;1.00
8248;DHT22;4164;49.844;8.830;2023-06-14T10:19:21;25.10;1.00
8248;DHT22;4164;49.844;8.830;2023-06-14T10:21:59;24.40;1.00
8248;DHT22;4164;49.844;8.830;2023-06-14T10:24:41;24.50;1.00
8248;DHT22;4164;49.844;8.830;2023-06-14T10:27:07;24.90;1.00
8248;DHT22;4164;49.844;8.830;2023-06-14T10:32:21;25.10;1.00
8248;DHT22;4164;49.844;8.830;2023-06-14T10:35:00;25.00;1.00
8248;DHT22;4164;49.844;8.830;2023-06-14T10:37:27;25.20;1.00
8248;DHT22;4164;49.844;8.830;2023-06-14T10:39:53;26.00;1.00
8248;DHT22;4164;49.844;8.830;2023-06-14T10:42:19;26.70;1.00
8248;DHT22;4164;49.844;8.830;2023-06-14T10:44:55;26.90;1.00
8248;DHT22;4164;49.844;8.830;2023-06-14T10:52:23;25.30;1.00
8248;DHT22;4164;49.844;8.830;2023-06-14T10:57:54;25.20;1.00
8248;DHT22;4164;49.844;8.830;2023-06-14T11:00:23;25.90;1.00
8248;DHT22;4164;49.844;8.830;2023-06-14T11:03:16;26.40;1.00
8248;DHT22;4164;49.844;8.830;2023-06-14T11:10:55;25.60;1.00
8248;DHT22;4164;49.844;8.830;2023-06-14T11:13:25;26.00;1.00
8248;DHT22;4164;49.844;8.830;2023-06-14T11:15:50;26.40;1.00
8248;DHT22;4164;49.844;8.830;2023-06-14T11:18:18;27.20;1.00
8248;DHT22;4164;49.844;8.830;2023-06-14T11:20:46;27.90;1.00
8248;DHT22;4164;49.844;8.830;2023-06-14T11:23:12;28.50;1.00
8248;DHT22;4164;49.844;8.830;2023-06-14T11:25:37;28.80;1.00
8248;DHT22;4164;49.844;8.830;2023-06-14T11:28:03;28.70;1.00
8248;DHT22;4164;49.844;8.830;2023-06-14T11:30:28;29.20;1.00
8248;DHT22;4164;49.844;8.830;2023-06-14T11:32:55;28.00;1.00
8248;DHT22;4164;49.844;8.830;2023-06-14T11:35:24;27.10;1.00
8248;DHT22;4164;49.844;8.830;2023-06-14T11:37:54;27.00;1.00
8248;DHT22;4164;49.844;8.830;2023-06-14T11:40:24;26.80;1.00
8248;DHT22;4164;49.844;8.830;2023-06-14T11:42:50;26.40;1.00
8248;DHT22;4164;49.844;8.830;2023-06-14T11:45:15;27.70;1.00
8248;DHT22;4164;49.844;8.830;2023-06-14T11:47:41;28.60;1.00
8248;DHT22;4164;49.844;8.830;2023-06-14T11:50:08;28.10;1.00
8248;DHT22;4164;49.844;8.830;2023-06-14T11:52:37;27.50;1.00
8248;DHT22;4164;49.844;8.830;2023-06-14T11:55:03;27.10;1.00
8248;DHT22;4164;49.844;8.830;2023-06-14T11:57:33;29.70;1.00
8248;DHT22;4164;49.844;8.830;2023-06-14T11:59:59;31.90;1.00
8248;DHT22;4164;49.844;8.830;2023-06-14T12:02:24;31.20;1.00
8248;DHT22;4164;49.844;8.830;2023-06-14T12:04:53;30.50;1.00
8248;DHT22;4164;49.844;8.830;2023-06-14T12:07:22;32.90;1.00
8248;DHT22;4164;49.844;8.830;2023-06-14T12:12:20;35.90;1.00
8248;DHT22;4164;49.844;8.830;2023-06-14T12:14:47;35.40;1.00
8248;DHT22;4164;49.844;8.830;2023-06-14T12:17:12;35.60;1.00
8248;DHT22;4164;49.844;8.830;2023-06-14T12:19:45;36.90;1.00
8248;DHT22;4164;49.844;8.830;2023-06-14T12:22:14;38.70;1.00
8248;DHT22;4164;49.844;8.830;2023-06-14T12:24:44;37.60;1.00
8248;DHT22;4164;49.844;8.830;2023-06-14T12:27:10;34.70;1.00
8248;DHT22;4164;49.844;8.830;2023-06-14T12:29:44;32.70;1.00
8248;DHT22;4164;49.844;8.830;2023-06-14T12:32:10;31.50;1.00
8248;DHT22;4164;49.844;8.830;2023-06-14T12:34:35;31.20;1.00
8248;DHT22;4164;49.844;8.830;2023-06-14T12:37:01;33.20;1.00
8248;DHT22;4164;49.844;8.830;2023-06-14T12:39:29;35.90;1.00
8248;DHT22;4164;49.844;8.830;2023-06-14T12:41:57;37.10;1.00
8248;DHT22;4164;49.844;8.830;2023-06-14T12:44:22;38.50;1.00
8248;DHT22;4164;49.844;8.830;2023-06-14T12:46:48;39.90;1.00
8248;DHT22;4164;49.844;8.830;2023-06-14T12:49:16;40.20;1.00
8248;DHT22;4164;49.844;8.830;2023-06-14T12:51:42;40.70;1.00
8248;DHT22;4164;49.844;8.830;2023-06-14T12:54:08;38.10;1.00
8248;DHT22;4164;49.844;8.830;2023-06-14T12:56:34;36.00;1.00
8248;DHT22;4164;49.844;8.830;2023-06-14T12:59:00;32.70;1.00
8248;DHT22;4164;49.844;8.830;2023-06-14T13:01:25;30.60;1.00
8248;DHT22;4164;49.844;8.830;2023-06-14T13:03:51;30.70;1.00
8248;DHT22;4164;49.844;8.830;2023-06-14T13:06:23;31.80;1.00
8248;DHT22;4164;49.844;8.830;2023-06-14T13:08:49;33.20;1.00
8248;DHT22;4164;49.844;8.830;2023-06-14T13:11:15;34.40;1.00
8248;DHT22;4164;49.844;8.830;2023-06-14T13:13:41;35.50;1.00
8248;DHT22;4164;49.844;8.830;2023-06-14T13:16:06;35.50;1.00
8248;DHT22;4164;49.844;8.830;2023-06-14T13:18:33;33.30;1.00
8248;DHT22;4164;49.844;8.830;2023-06-14T13:20:59;32.70;1.00
8248;DHT22;4164;49.844;8.830;2023-06-14T13:23:24;34.40;1.00
8248;DHT22;4164;49.844;8.830;2023-06-14T13:25:50;36.30;1.00
8248;DHT22;4164;49.844;8.830;2023-06-14T13:28:16;37.70;1.00
8248;DHT22;4164;49.844;8.830;2023-06-14T13:30:42;39.10;1.00
8248;DHT22;4164;49.844;8.830;2023-06-14T13:33:07;39.10;1.00
8248;DHT22;4164;49.844;8.830;2023-06-14T13:35:33;38.90;1.00
8248;DHT22;4164;49.844;8.830;2023-06-14T13:37:59;39.10;1.00
8248;DHT22;4164;49.844;8.830;2023-06-14T13:40:24;39.60;1.00
8248;DHT22;4164;49.844;8.830;2023-06-14T13:42:50;40.00;1.00
8248;DHT22;4164;49.844;8.830;2023-06-14T13:45:16;39.70;1.00
8248;DHT22;4164;49.844;8.830;2023-06-14T13:47:41;41.00;1.00
8248;DHT22;4164;49.844;8.830;2023-06-14T13:50:07;40.50;1.00
8248;DHT22;4164;49.844;8.830;2023-06-14T13:52:33;40.80;1.00
8248;DHT22;4164;49.844;8.830;2023-06-14T13:55:00;40.60;1.00
8248;DHT22;4164;49.844;8.830;2023-06-14T13:57:25;39.50;1.00
8248;DHT22;4164;49.844;8.830;2023-06-14T13:59:51;39.50;1.00
8248;DHT22;4164;49.844;8.830;2023-06-14T14:02:18;37.40;1.00
8248;DHT22;4164;49.844;8.830;2023-06-14T14:04:47;34.30;1.00
8248;DHT22;4164;49.844;8.830;2023-06-14T14:07:18;32.10;1.00
8248;DHT22;4164;49.844;8.830;2023-06-14T14:09:45;30.70;1.00
8248;DHT22;4164;49.844;8.830;2023-06-14T14:12:11;29.60;1.00
8248;DHT22;4164;49.844;8.830;2023-06-14T14:14:37;29.30;1.00
8248;DHT22;4164;49.844;8.830;2023-06-14T14:17:02;29.90;1.00
8248;DHT22;4164;49.844;8.830;2023-06-14T14:19:29;30.80;1.00
8248;DHT22;4164;49.844;8.830;2023-06-14T14:21:54;32.90;1.00
8248;DHT22;4164;49.844;8.830;2023-06-14T14:24:20;34.70;1.00
8248;DHT22;4164;49.844;8.830;2023-06-14T14:26:45;37.10;1.00
8248;DHT22;4164;49.844;8.830;2023-06-14T14:29:14;37.80;1.00
8248;DHT22;4164;49.844;8.830;2023-06-14T14:31:39;38.10;1.00
8248;DHT22;4164;49.844;8.830;2023-06-14T14:34:05;38.10;1.00
8248;DHT22;4164;49.844;8.830;2023-06-14T14:36:31;38.10;1.00
8248;DHT22;4164;49.844;8.830;2023-06-14T14:38:56;37.70;1.00
8248;DHT22;4164;49.844;8.830;2023-06-14T14:41:22;37.00;1.00
8248;DHT22;4164;49.844;8.830;2023-06-14T14:43:47;36.60;1.00
8248;DHT22;4164;49.844;8.830;2023-06-14T14:46:13;35.50;1.00
8248;DHT22;4164;49.844;8.830;2023-06-14T14:48:38;35.70;1.00
8248;DHT22;4164;49.844;8.830;2023-06-14T14:51:04;37.00;1.00
8248;DHT22;4164;49.844;8.830;2023-06-14T14:53:29;36.40;1.00
8248;DHT22;4164;49.844;8.830;2023-06-14T14:55:55;37.00;1.00
8248;DHT22;4164;49.844;8.830;2023-06-14T14:58:22;37.60;1.00
8248;DHT22;4164;49.844;8.830;2023-06-14T15:00:47;38.20;1.00
8248;DHT22;4164;49.844;8.830;2023-06-14T15:03:13;37.30;1.00
8248;DHT22;4164;49.844;8.830;2023-06-14T15:05:39;37.50;1.00
8248;DHT22;4164;49.844;8.830;2023-06-14T15:08:05;36.60;1.00
8248;DHT22;4164;49.844;8.830;2023-06-14T15:10:40;35.50;1.00
8248;DHT22;4164;49.844;8.830;2023-06-14T15:13:07;34.60;1.00
8248;DHT22;4164;49.844;8.830;2023-06-14T15:15:36;32.40;1.00
8248;DHT22;4164;49.844;8.830;2023-06-14T15:18:02;31.20;1.00
8248;DHT22;4164;49.844;8.830;2023-06-14T15:20:28;29.50;1.00
8248;DHT22;4164;49.844;8.830;2023-06-14T15:22:54;28.60;1.00
8248;DHT22;4164;49.844;8.830;2023-06-14T15:25:25;28.00;1.00
8248;DHT22;4164;49.844;8.830;2023-06-14T15:27:51;27.80;1.00
8248;DHT22;4164;49.844;8.830;2023-06-14T15:30:16;27.70;1.00
8248;DHT22;4164;49.844;8.830;2023-06-14T15:32:42;27.70;1.00
8248;DHT22;4164;49.844;8.830;2023-06-14T15:35:08;27.40;1.00
8248;DHT22;4164;49.844;8.830;2023-06-14T15:37:33;27.40;1.00
8248;DHT22;4164;49.844;8.830;2023-06-14T15:39:59;27.60;1.00
8248;DHT22;4164;49.844;8.830;2023-06-14T15:42:24;27.70;1.00
8248;DHT22;4164;49.844;8.830;2023-06-14T15:44:50;28.30;1.00
8248;DHT22;4164;49.844;8.830;2023-06-14T15:47:15;28.70;1.00
8248;DHT22;4164;49.844;8.830;2023-06-14T15:49:41;28.80;1.00
8248;DHT22;4164;49.844;8.830;2023-06-14T15:52:07;28.50;1.00
8248;DHT22;4164;49.844;8.830;2023-06-14T15:54:32;28.00;1.00
8248;DHT22;4164;49.844;8.830;2023-06-14T15:56:58;27.60;1.00
8248;DHT22;4164;49.844;8.830;2023-06-14T15:59:24;27.40;1.00
8248;DHT22;4164;49.844;8.830;2023-06-14T16:01:50;27.70;1.00
8248;DHT22;4164;49.844;8.830;2023-06-14T16:04:15;27.80;1.00
8248;DHT22;4164;49.844;8.830;2023-06-14T16:06:41;27.70;1.00
8248;DHT22;4164;49.844;8.830;2023-06-14T16:09:06;27.80;1.00
8248;DHT22;4164;49.844;8.830;2023-06-14T16:11:32;27.80;1.00
8248;DHT22;4164;49.844;8.830;2023-06-14T16:13:57;27.60;1.00
8248;DHT22;4164;49.844;8.830;2023-06-14T16:16:23;27.30;1.00
8248;DHT22;4164;49.844;8.830;2023-06-14T16:18:49;26.80;1.00
8248;DHT22;4164;49.844;8.830;2023-06-14T16:21:14;26.50;1.00
8248;DHT22;4164;49.844;8.830;2023-06-14T16:23:41;26.10;1.00
8248;DHT22;4164;49.844;8.830;2023-06-14T16:26:10;25.80;1.00
8248;DHT22;4164;49.844;8.830;2023-06-14T16:28:39;25.50;1.00
8248;DHT22;4164;49.844;8.830;2023-06-14T16:31:13;25.20;1.00
8248;DHT22;4164;49.844;8.830;2023-06-14T16:33:40;25.20;1.00